sensor_id;sensor_type;location;lat;lon;timestamp;P1;durP1;ratioP1;P2;durP2;ratioP2
15476;SDS011;7840;42.702;23.296;2023-03-09T00:02:19;4.70;;;3.20;;
15476;SDS011;7840;42.702;23.296;2023-03-09T00:05:02;4.07;;;3.00;;
15476;SDS011;7840;42.702;23.296;2023-03-09T00:07:30;5.00;;;2.93;;
15476;SDS011;7840;42.702;23.296;2023-03-09T00:09:58;3.87;;;3.07;;
15476;SDS011;7840;42.702;23.296;2023-03-09T00:12:25;3.70;;;2.70;;
15476;SDS011;7840;42.702;23.296;2023-03-09T00:14:53;8.40;;;3.47;;
15476;SDS011;7840;42.702;23.296;2023-03-09T00:17:20;4.40;;;3.07;;
15476;SDS011;7840;42.702;23.296;2023-03-09T00:19:48;3.97;;;2.97;;
15476;SDS011;7840;42.702;23.296;2023-03-09T00:22:29;4.93;;;3.10;;
15476;SDS011;7840;42.702;23.296;2023-03-09T00:24:57;3.60;;;3.17;;
15476;SDS011;7840;42.702;23.296;2023-03-09T00:27:24;7.40;;;3.30;;
15476;SDS011;7840;42.702;23.296;2023-03-09T00:29:51;5.87;;;3.10;;
15476;SDS011;7840;42.702;23.296;2023-03-09T00:32:18;5.40;;;3.50;;
15476;SDS011;7840;42.702;23.296;2023-03-09T00:34:46;6.73;;;3.17;;
15476;SDS011;7840;42.702;23.296;2023-03-09T00:37:13;4.37;;;3.30;;
15476;SDS011;7840;42.702;23.296;2023-03-09T00:39:42;6.67;;;2.93;;
15476;SDS011;7840;42.702;23.296;2023-03-09T00:42:14;5.80;;;3.70;;
15476;SDS011;7840;42.702;23.296;2023-03-09T00:44:42;6.43;;;3.80;;
15476;SDS011;7840;42.702;23.296;2023-03-09T00:47:11;5.97;;;4.60;;
15476;SDS011;7840;42.702;23.296;2023-03-09T00:49:38;7.77;;;4.30;;
15476;SDS011;7840;42.702;23.296;2023-03-09T00:52:06;6.63;;;4.33;;
15476;SDS011;7840;42.702;23.296;2023-03-09T00:54:33;5.73;;;3.90;;
15476;SDS011;7840;42.702;23.296;2023-03-09T00:57:02;4.97;;;3.97;;
15476;SDS011;7840;42.702;23.296;2023-03-09T00:59:30;4.97;;;3.60;;
15476;SDS011;7840;42.702;23.296;2023-03-09T01:01:57;7.23;;;3.87;;
15476;SDS011;7840;42.702;23.296;2023-03-09T01:04:24;6.80;;;4.20;;
15476;SDS011;7840;42.702;23.296;2023-03-09T01:06:55;6.00;;;3.70;;
15476;SDS011;7840;42.702;23.296;2023-03-09T01:09:22;6.27;;;3.63;;
15476;SDS011;7840;42.702;23.296;2023-03-09T01:11:51;7.77;;;3.60;;
15476;SDS011;7840;42.702;23.296;2023-03-09T01:14:19;5.63;;;3.70;;
15476;SDS011;7840;42.702;23.296;2023-03-09T01:16:47;6.33;;;4.20;;
15476;SDS011;7840;42.702;23.296;2023-03-09T01:19:14;4.90;;;4.40;;
15476;SDS011;7840;42.702;23.296;2023-03-09T01:21:41;6.70;;;4.60;;
15476;SDS011;7840;42.702;23.296;2023-03-09T01:24:08;6.00;;;4.13;;
15476;SDS011;7840;42.702;23.296;2023-03-09T01:26:36;7.27;;;4.10;;
15476;SDS011;7840;42.702;23.296;2023-03-09T01:29:03;5.33;;;3.87;;
15476;SDS011;7840;42.702;23.296;2023-03-09T01:34:02;6.13;;;4.00;;
15476;SDS011;7840;42.702;23.296;2023-03-09T01:36:29;7.00;;;4.70;;
15476;SDS011;7840;42.702;23.296;2023-03-09T01:38:56;6.27;;;4.07;;
15476;SDS011;7840;42.702;23.296;2023-03-09T01:41:24;5.40;;;4.30;;
15476;SDS011;7840;42.702;23.296;2023-03-09T01:43:52;7.43;;;5.40;;
15476;SDS011;7840;42.702;23.296;2023-03-09T01:46:25;8.27;;;5.73;;
15476;SDS011;7840;42.702;23.296;2023-03-09T01:48:54;8.07;;;5.67;;
15476;SDS011;7840;42.702;23.296;2023-03-09T01:51:26;7.63;;;5.33;;
15476;SDS011;7840;42.702;23.296;2023-03-09T01:53:54;12.70;;;6.77;;
15476;SDS011;7840;42.702;23.296;2023-03-09T01:56:22;9.07;;;5.73;;
15476;SDS011;7840;42.702;23.296;2023-03-09T01:58:51;8.83;;;6.20;;
15476;SDS011;7840;42.702;23.296;2023-03-09T02:01:19;9.10;;;6.67;;
15476;SDS011;7840;42.702;23.296;2023-03-09T02:03:50;12.10;;;8.07;;
15476;SDS011;7840;42.702;23.296;2023-03-09T02:06:18;11.70;;;6.90;;
15476;SDS011;7840;42.702;23.296;2023-03-09T02:08:52;9.07;;;7.17;;
15476;SDS011;7840;42.702;23.296;2023-03-09T02:11:23;10.10;;;6.60;;
15476;SDS011;7840;42.702;23.296;2023-03-09T02:13:51;11.13;;;7.17;;
15476;SDS011;7840;42.702;23.296;2023-03-09T02:16:32;9.20;;;6.63;;
15476;SDS011;7840;42.702;23.296;2023-03-09T02:18:59;8.23;;;6.47;;
15476;SDS011;7840;42.702;23.296;2023-03-09T02:21:28;8.27;;;6.37;;
15476;SDS011;7840;42.702;23.296;2023-03-09T02:26:52;9.47;;;6.90;;
15476;SDS011;7840;42.702;23.296;2023-03-09T02:29:25;10.67;;;7.47;;
15476;SDS011;7840;42.702;23.296;2023-03-09T02:31:53;10.63;;;7.23;;
15476;SDS011;7840;42.702;23.296;2023-03-09T02:34:23;9.37;;;6.73;;
15476;SDS011;7840;42.702;23.296;2023-03-09T02:36:50;9.43;;;7.13;;
15476;SDS011;7840;42.702;23.296;2023-03-09T02:39:21;8.67;;;6.80;;
15476;SDS011;7840;42.702;23.296;2023-03-09T02:41:53;10.10;;;7.47;;
15476;SDS011;7840;42.702;23.296;2023-03-09T02:44:22;13.70;;;7.27;;
15476;SDS011;7840;42.702;23.296;2023-03-09T02:46:51;15.60;;;8.03;;
15476;SDS011;7840;42.702;23.296;2023-03-09T02:49:18;10.63;;;6.67;;
15476;SDS011;7840;42.702;23.296;2023-03-09T02:51:45;12.53;;;7.17;;
15476;SDS011;7840;42.702;23.296;2023-03-09T02:54:13;13.57;;;7.53;;
15476;SDS011;7840;42.702;23.296;2023-03-09T02:56:40;13.93;;;7.53;;
15476;SDS011;7840;42.702;23.296;2023-03-09T02:59:07;15.23;;;7.40;;
15476;SDS011;7840;42.702;23.296;2023-03-09T03:01:35;7.47;;;5.67;;
15476;SDS011;7840;42.702;23.296;2023-03-09T03:04:03;8.07;;;4.70;;
15476;SDS011;7840;42.702;23.296;2023-03-09T03:06:30;7.07;;;3.93;;
15476;SDS011;7840;42.702;23.296;2023-03-09T03:08:58;5.40;;;3.70;;
15476;SDS011;7840;42.702;23.296;2023-03-09T03:14:13;7.27;;;4.23;;
15476;SDS011;7840;42.702;23.296;2023-03-09T03:16:55;9.57;;;4.43;;
15476;SDS011;7840;42.702;23.296;2023-03-09T03:19:37;5.83;;;3.70;;
15476;SDS011;7840;42.702;23.296;2023-03-09T03:22:07;8.90;;;4.07;;
15476;SDS011;7840;42.702;23.296;2023-03-09T03:24:35;5.63;;;4.30;;
15476;SDS011;7840;42.702;23.296;2023-03-09T03:27:02;4.33;;;3.80;;
15476;SDS011;7840;42.702;23.296;2023-03-09T03:29:43;4.47;;;3.83;;
15476;SDS011;7840;42.702;23.296;2023-03-09T03:32:11;6.80;;;3.60;;
15476;SDS011;7840;42.702;23.296;2023-03-09T03:34:40;5.20;;;4.20;;
15476;SDS011;7840;42.702;23.296;2023-03-09T03:37:07;5.63;;;3.70;;
15476;SDS011;7840;42.702;23.296;2023-03-09T03:39:34;4.17;;;3.53;;
15476;SDS011;7840;42.702;23.296;2023-03-09T03:42:02;6.30;;;4.30;;
15476;SDS011;7840;42.702;23.296;2023-03-09T03:44:29;7.43;;;4.10;;
15476;SDS011;7840;42.702;23.296;2023-03-09T03:46:57;5.83;;;3.93;;
15476;SDS011;7840;42.702;23.296;2023-03-09T03:49:24;4.47;;;3.90;;
15476;SDS011;7840;42.702;23.296;2023-03-09T03:51:53;5.83;;;4.40;;
15476;SDS011;7840;42.702;23.296;2023-03-09T03:54:20;8.73;;;4.30;;
15476;SDS011;7840;42.702;23.296;2023-03-09T03:56:49;5.17;;;3.87;;
15476;SDS011;7840;42.702;23.296;2023-03-09T03:59:16;11.40;;;5.07;;
15476;SDS011;7840;42.702;23.296;2023-03-09T04:01:43;9.30;;;4.20;;
15476;SDS011;7840;42.702;23.296;2023-03-09T04:04:11;12.27;;;4.83;;
15476;SDS011;7840;42.702;23.296;2023-03-09T04:06:38;6.97;;;4.33;;
15476;SDS011;7840;42.702;23.296;2023-03-09T04:09:07;5.77;;;4.20;;
15476;SDS011;7840;42.702;23.296;2023-03-09T04:11:34;6.80;;;4.40;;
15476;SDS011;7840;42.702;23.296;2023-03-09T04:14:01;7.73;;;4.40;;
15476;SDS011;7840;42.702;23.296;2023-03-09T04:16:28;9.47;;;4.80;;
15476;SDS011;7840;42.702;23.296;2023-03-09T04:18:56;10.33;;;5.20;;
15476;SDS011;7840;42.702;23.296;2023-03-09T04:21:23;9.17;;;4.73;;
15476;SDS011;7840;42.702;23.296;2023-03-09T04:23:50;7.27;;;4.97;;
15476;SDS011;7840;42.702;23.296;2023-03-09T04:26:19;10.10;;;5.00;;
15476;SDS011;7840;42.702;23.296;2023-03-09T04:28:46;8.13;;;4.40;;
15476;SDS011;7840;42.702;23.296;2023-03-09T04:31:14;11.20;;;5.03;;
15476;SDS011;7840;42.702;23.296;2023-03-09T04:33:41;13.63;;;4.77;;
15476;SDS011;7840;42.702;23.296;2023-03-09T04:36:09;6.47;;;4.43;;
15476;SDS011;7840;42.702;23.296;2023-03-09T04:38:36;8.50;;;5.40;;
15476;SDS011;7840;42.702;23.296;2023-03-09T04:41:05;11.17;;;5.80;;
15476;SDS011;7840;42.702;23.296;2023-03-09T04:43:33;10.93;;;5.43;;
15476;SDS011;7840;42.702;23.296;2023-03-09T04:46:01;18.03;;;5.70;;
15476;SDS011;7840;42.702;23.296;2023-03-09T04:48:28;11.00;;;5.57;;
15476;SDS011;7840;42.702;23.296;2023-03-09T04:50:55;10.80;;;5.57;;
15476;SDS011;7840;42.702;23.296;2023-03-09T04:53:23;10.47;;;5.30;;
15476;SDS011;7840;42.702;23.296;2023-03-09T04:55:50;11.70;;;5.70;;
15476;SDS011;7840;42.702;23.296;2023-03-09T04:58:17;9.53;;;5.63;;
15476;SDS011;7840;42.702;23.296;2023-03-09T05:00:46;9.30;;;5.07;;
15476;SDS011;7840;42.702;23.296;2023-03-09T05:03:13;6.93;;;5.40;;
15476;SDS011;7840;42.702;23.296;2023-03-09T05:05:47;12.33;;;7.30;;
15476;SDS011;7840;42.702;23.296;2023-03-09T05:08:14;10.47;;;5.80;;
15476;SDS011;7840;42.702;23.296;2023-03-09T05:10:44;10.60;;;5.70;;
15476;SDS011;7840;42.702;23.296;2023-03-09T05:13:11;12.73;;;7.00;;
15476;SDS011;7840;42.702;23.296;2023-03-09T05:15:39;13.50;;;6.93;;
15476;SDS011;7840;42.702;23.296;2023-03-09T05:18:36;11.77;;;6.97;;
15476;SDS011;7840;42.702;23.296;2023-03-09T05:21:11;15.47;;;6.57;;
15476;SDS011;7840;42.702;23.296;2023-03-09T05:23:44;15.20;;;7.53;;
15476;SDS011;7840;42.702;23.296;2023-03-09T05:26:25;8.77;;;6.27;;
15476;SDS011;7840;42.702;23.296;2023-03-09T05:29:05;10.73;;;5.60;;
15476;SDS011;7840;42.702;23.296;2023-03-09T05:31:39;13.23;;;6.03;;
15476;SDS011;7840;42.702;23.296;2023-03-09T05:34:08;12.00;;;6.07;;
15476;SDS011;7840;42.702;23.296;2023-03-09T05:36:35;6.73;;;5.60;;
15476;SDS011;7840;42.702;23.296;2023-03-09T05:39:03;11.47;;;5.73;;
15476;SDS011;7840;42.702;23.296;2023-03-09T05:41:30;12.53;;;5.90;;
15476;SDS011;7840;42.702;23.296;2023-03-09T05:43:58;8.70;;;5.73;;
15476;SDS011;7840;42.702;23.296;2023-03-09T05:46:26;12.60;;;6.50;;
15476;SDS011;7840;42.702;23.296;2023-03-09T05:48:53;11.47;;;7.20;;
15476;SDS011;7840;42.702;23.296;2023-03-09T05:51:22;9.73;;;6.47;;
15476;SDS011;7840;42.702;23.296;2023-03-09T05:53:49;11.13;;;6.53;;
15476;SDS011;7840;42.702;23.296;2023-03-09T05:56:16;9.83;;;6.27;;
15476;SDS011;7840;42.702;23.296;2023-03-09T05:58:47;13.10;;;7.00;;
15476;SDS011;7840;42.702;23.296;2023-03-09T06:01:16;11.73;;;7.00;;
15476;SDS011;7840;42.702;23.296;2023-03-09T06:03:44;12.07;;;7.00;;
15476;SDS011;7840;42.702;23.296;2023-03-09T06:06:11;10.87;;;6.53;;
15476;SDS011;7840;42.702;23.296;2023-03-09T06:08:40;12.10;;;7.40;;
15476;SDS011;7840;42.702;23.296;2023-03-09T06:11:08;14.63;;;6.77;;
15476;SDS011;7840;42.702;23.296;2023-03-09T06:13:35;11.50;;;7.13;;
15476;SDS011;7840;42.702;23.296;2023-03-09T06:16:03;16.20;;;7.87;;
15476;SDS011;7840;42.702;23.296;2023-03-09T06:18:30;11.43;;;6.67;;
15476;SDS011;7840;42.702;23.296;2023-03-09T06:21:01;15.50;;;6.47;;
15476;SDS011;7840;42.702;23.296;2023-03-09T06:23:31;14.47;;;6.23;;
15476;SDS011;7840;42.702;23.296;2023-03-09T06:26:03;8.03;;;6.67;;
15476;SDS011;7840;42.702;23.296;2023-03-09T06:28:30;9.87;;;6.10;;
15476;SDS011;7840;42.702;23.296;2023-03-09T06:30:58;10.93;;;6.10;;
15476;SDS011;7840;42.702;23.296;2023-03-09T06:33:25;7.77;;;6.10;;
15476;SDS011;7840;42.702;23.296;2023-03-09T06:35:52;12.20;;;7.40;;
15476;SDS011;7840;42.702;23.296;2023-03-09T06:38:22;24.40;;;8.03;;
15476;SDS011;7840;42.702;23.296;2023-03-09T06:40:52;14.93;;;7.47;;
15476;SDS011;7840;42.702;23.296;2023-03-09T06:43:22;13.07;;;7.50;;
15476;SDS011;7840;42.702;23.296;2023-03-09T06:45:49;17.10;;;7.23;;
15476;SDS011;7840;42.702;23.296;2023-03-09T06:48:17;15.07;;;8.00;;
15476;SDS011;7840;42.702;23.296;2023-03-09T06:50:44;13.57;;;7.70;;
15476;SDS011;7840;42.702;23.296;2023-03-09T06:53:13;16.00;;;8.77;;
15476;SDS011;7840;42.702;23.296;2023-03-09T06:55:41;15.90;;;9.13;;
15476;SDS011;7840;42.702;23.296;2023-03-09T06:58:08;14.57;;;9.43;;
15476;SDS011;7840;42.702;23.296;2023-03-09T07:00:38;12.27;;;9.83;;
15476;SDS011;7840;42.702;23.296;2023-03-09T07:03:10;17.03;;;10.10;;
15476;SDS011;7840;42.702;23.296;2023-03-09T07:05:39;10.77;;;8.63;;
15476;SDS011;7840;42.702;23.296;2023-03-09T07:08:08;12.50;;;8.90;;
15476;SDS011;7840;42.702;23.296;2023-03-09T07:10:53;13.97;;;9.73;;
15476;SDS011;7840;42.702;23.296;2023-03-09T07:13:26;13.52;;;8.70;;
15476;SDS011;7840;42.702;23.296;2023-03-09T07:18:42;13.93;;;9.17;;
15476;SDS011;7840;42.702;23.296;2023-03-09T07:21:13;14.90;;;9.33;;
15476;SDS011;7840;42.702;23.296;2023-03-09T07:23:42;11.17;;;7.83;;
15476;SDS011;7840;42.702;23.296;2023-03-09T07:26:10;15.07;;;7.97;;
15476;SDS011;7840;42.702;23.296;2023-03-09T07:28:37;8.40;;;7.03;;
15476;SDS011;7840;42.702;23.296;2023-03-09T07:31:05;11.20;;;7.73;;
15476;SDS011;7840;42.702;23.296;2023-03-09T07:33:33;15.43;;;8.00;;
15476;SDS011;7840;42.702;23.296;2023-03-09T07:36:03;10.30;;;7.20;;
15476;SDS011;7840;42.702;23.296;2023-03-09T07:38:30;13.43;;;7.50;;
15476;SDS011;7840;42.702;23.296;2023-03-09T07:40:58;11.75;;;7.53;;
15476;SDS011;7840;42.702;23.296;2023-03-09T07:43:25;13.48;;;8.50;;
15476;SDS011;7840;42.702;23.296;2023-03-09T07:45:53;13.60;;;8.50;;
15476;SDS011;7840;42.702;23.296;2023-03-09T07:48:20;10.52;;;8.50;;
15476;SDS011;7840;42.702;23.296;2023-03-09T07:50:55;13.82;;;8.82;;
15476;SDS011;7840;42.702;23.296;2023-03-09T07:53:24;18.33;;;10.23;;
15476;SDS011;7840;42.702;23.296;2023-03-09T07:55:54;16.20;;;9.77;;
15476;SDS011;7840;42.702;23.296;2023-03-09T07:58:22;24.02;;;10.77;;
15476;SDS011;7840;42.702;23.296;2023-03-09T08:00:49;16.30;;;9.45;;
15476;SDS011;7840;42.702;23.296;2023-03-09T08:03:17;13.85;;;8.65;;
15476;SDS011;7840;42.702;23.296;2023-03-09T08:05:44;16.75;;;8.90;;
15476;SDS011;7840;42.702;23.296;2023-03-09T08:08:12;12.02;;;8.23;;
15476;SDS011;7840;42.702;23.296;2023-03-09T08:10:45;9.95;;;8.27;;
15476;SDS011;7840;42.702;23.296;2023-03-09T08:13:13;18.38;;;10.73;;
15476;SDS011;7840;42.702;23.296;2023-03-09T08:15:40;15.20;;;10.88;;
15476;SDS011;7840;42.702;23.296;2023-03-09T08:18:08;17.92;;;11.35;;
15476;SDS011;7840;42.702;23.296;2023-03-09T08:20:35;20.05;;;10.75;;
15476;SDS011;7840;42.702;23.296;2023-03-09T08:23:02;13.32;;;10.07;;
15476;SDS011;7840;42.702;23.296;2023-03-09T08:25:30;23.63;;;10.10;;
15476;SDS011;7840;42.702;23.296;2023-03-09T08:27:58;20.33;;;11.13;;
15476;SDS011;7840;42.702;23.296;2023-03-09T08:30:26;24.42;;;11.05;;
15476;SDS011;7840;42.702;23.296;2023-03-09T08:32:56;16.10;;;10.13;;
15476;SDS011;7840;42.702;23.296;2023-03-09T08:35:24;15.48;;;9.52;;
15476;SDS011;7840;42.702;23.296;2023-03-09T08:37:55;13.75;;;10.07;;
15476;SDS011;7840;42.702;23.296;2023-03-09T08:40:22;13.50;;;9.15;;
15476;SDS011;7840;42.702;23.296;2023-03-09T08:42:49;18.90;;;9.40;;
15476;SDS011;7840;42.702;23.296;2023-03-09T08:45:19;21.55;;;10.10;;
15476;SDS011;7840;42.702;23.296;2023-03-09T08:47:46;16.90;;;9.00;;
15476;SDS011;7840;42.702;23.296;2023-03-09T08:50:14;10.70;;;7.28;;
15476;SDS011;7840;42.702;23.296;2023-03-09T08:52:41;12.77;;;8.00;;
15476;SDS011;7840;42.702;23.296;2023-03-09T08:55:11;19.15;;;8.43;;
15476;SDS011;7840;42.702;23.296;2023-03-09T08:57:40;9.15;;;7.45;;
15476;SDS011;7840;42.702;23.296;2023-03-09T09:00:13;13.88;;;7.22;;
15476;SDS011;7840;42.702;23.296;2023-03-09T09:02:42;14.75;;;7.00;;
15476;SDS011;7840;42.702;23.296;2023-03-09T09:05:09;11.38;;;6.97;;
15476;SDS011;7840;42.702;23.296;2023-03-09T09:07:36;10.50;;;7.18;;
15476;SDS011;7840;42.702;23.296;2023-03-09T09:10:06;13.82;;;7.70;;
15476;SDS011;7840;42.702;23.296;2023-03-09T09:12:34;8.73;;;6.78;;
15476;SDS011;7840;42.702;23.296;2023-03-09T09:15:03;11.35;;;6.32;;
15476;SDS011;7840;42.702;23.296;2023-03-09T09:17:34;9.27;;;6.63;;
15476;SDS011;7840;42.702;23.296;2023-03-09T09:20:20;10.77;;;6.80;;
15476;SDS011;7840;42.702;23.296;2023-03-09T09:22:50;11.00;;;6.90;;
15476;SDS011;7840;42.702;23.296;2023-03-09T09:25:18;14.48;;;6.95;;
15476;SDS011;7840;42.702;23.296;2023-03-09T09:27:55;15.15;;;6.65;;
15476;SDS011;7840;42.702;23.296;2023-03-09T09:30:36;11.13;;;6.85;;
15476;SDS011;7840;42.702;23.296;2023-03-09T09:33:21;11.27;;;6.60;;
15476;SDS011;7840;42.702;23.296;2023-03-09T09:35:57;8.13;;;5.72;;
15476;SDS011;7840;42.702;23.296;2023-03-09T09:38:24;10.20;;;5.85;;
15476;SDS011;7840;42.702;23.296;2023-03-09T09:40:52;10.63;;;6.47;;
15476;SDS011;7840;42.702;23.296;2023-03-09T09:43:20;8.70;;;6.25;;
15476;SDS011;7840;42.702;23.296;2023-03-09T09:45:49;8.18;;;6.10;;
15476;SDS011;7840;42.702;23.296;2023-03-09T09:48:18;14.15;;;6.28;;
15476;SDS011;7840;42.702;23.296;2023-03-09T09:50:55;10.80;;;5.82;;
15476;SDS011;7840;42.702;23.296;2023-03-09T09:53:31;9.50;;;5.60;;
15476;SDS011;7840;42.702;23.296;2023-03-09T09:56:01;14.38;;;6.00;;
15476;SDS011;7840;42.702;23.296;2023-03-09T09:58:50;9.90;;;6.40;;
15476;SDS011;7840;42.702;23.296;2023-03-09T10:01:41;12.20;;;5.88;;
15476;SDS011;7840;42.702;23.296;2023-03-09T10:04:14;12.13;;;5.35;;
15476;SDS011;7840;42.702;23.296;2023-03-09T10:06:41;7.57;;;4.40;;
15476;SDS011;7840;42.702;23.296;2023-03-09T10:09:12;8.13;;;3.90;;
15476;SDS011;7840;42.702;23.296;2023-03-09T10:11:43;5.15;;;3.83;;
15476;SDS011;7840;42.702;23.296;2023-03-09T10:14:16;7.35;;;3.33;;
15476;SDS011;7840;42.702;23.296;2023-03-09T10:16:46;6.55;;;4.03;;
15476;SDS011;7840;42.702;23.296;2023-03-09T10:19:16;9.73;;;4.15;;
15476;SDS011;7840;42.702;23.296;2023-03-09T10:21:49;5.10;;;4.05;;
15476;SDS011;7840;42.702;23.296;2023-03-09T10:24:22;7.85;;;4.78;;
15476;SDS011;7840;42.702;23.296;2023-03-09T10:27:02;4.95;;;3.40;;
15476;SDS011;7840;42.702;23.296;2023-03-09T10:29:42;2.47;;;1.92;;
15476;SDS011;7840;42.702;23.296;2023-03-09T10:32:16;2.00;;;1.60;;
15476;SDS011;7840;42.702;23.296;2023-03-09T10:34:51;2.83;;;2.08;;
15476;SDS011;7840;42.702;23.296;2023-03-09T10:37:22;2.55;;;1.40;;
15476;SDS011;7840;42.702;23.296;2023-03-09T10:39:51;2.50;;;1.50;;
15476;SDS011;7840;42.702;23.296;2023-03-09T10:42:23;1.77;;;1.40;;
15476;SDS011;7840;42.702;23.296;2023-03-09T10:45:01;4.35;;;2.05;;
15476;SDS011;7840;42.702;23.296;2023-03-09T10:50:17;3.38;;;1.80;;
15476;SDS011;7840;42.702;23.296;2023-03-09T10:52:49;2.38;;;1.75;;
15476;SDS011;7840;42.702;23.296;2023-03-09T10:55:45;4.40;;;1.63;;
15476;SDS011;7840;42.702;23.296;2023-03-09T10:58:17;2.92;;;1.70;;
15476;SDS011;7840;42.702;23.296;2023-03-09T11:00:56;4.90;;;1.70;;
15476;SDS011;7840;42.702;23.296;2023-03-09T11:03:25;2.75;;;1.75;;
15476;SDS011;7840;42.702;23.296;2023-03-09T11:05:52;2.67;;;1.40;;
15476;SDS011;7840;42.702;23.296;2023-03-09T11:08:26;2.67;;;1.60;;
15476;SDS011;7840;42.702;23.296;2023-03-09T11:11:16;5.15;;;1.38;;
15476;SDS011;7840;42.702;23.296;2023-03-09T11:13:44;3.47;;;1.40;;
15476;SDS011;7840;42.702;23.296;2023-03-09T11:16:13;5.60;;;1.70;;
15476;SDS011;7840;42.702;23.296;2023-03-09T11:18:41;2.33;;;1.30;;
15476;SDS011;7840;42.702;23.296;2023-03-09T11:21:10;4.07;;;1.27;;
15476;SDS011;7840;42.702;23.296;2023-03-09T11:23:50;4.03;;;1.70;;
15476;SDS011;7840;42.702;23.296;2023-03-09T11:26:22;3.20;;;1.60;;
15476;SDS011;7840;42.702;23.296;2023-03-09T11:29:19;4.47;;;1.80;;
15476;SDS011;7840;42.702;23.296;2023-03-09T11:31:47;3.15;;;1.67;;
15476;SDS011;7840;42.702;23.296;2023-03-09T11:34:30;3.35;;;1.45;;
15476;SDS011;7840;42.702;23.296;2023-03-09T11:36:59;1.52;;;1.42;;
15476;SDS011;7840;42.702;23.296;2023-03-09T11:39:29;3.03;;;1.67;;
15476;SDS011;7840;42.702;23.296;2023-03-09T11:42:01;1.63;;;1.08;;
15476;SDS011;7840;42.702;23.296;2023-03-09T11:44:30;1.98;;;1.17;;
15476;SDS011;7840;42.702;23.296;2023-03-09T11:47:01;2.60;;;1.60;;
15476;SDS011;7840;42.702;23.296;2023-03-09T11:49:30;2.40;;;1.23;;
15476;SDS011;7840;42.702;23.296;2023-03-09T11:51:59;2.40;;;1.48;;
15476;SDS011;7840;42.702;23.296;2023-03-09T11:54:29;4.00;;;1.60;;
15476;SDS011;7840;42.702;23.296;2023-03-09T11:57:19;5.18;;;1.55;;
15476;SDS011;7840;42.702;23.296;2023-03-09T11:59:49;3.03;;;1.17;;
15476;SDS011;7840;42.702;23.296;2023-03-09T12:02:20;1.30;;;1.20;;
15476;SDS011;7840;42.702;23.296;2023-03-09T12:04:50;1.83;;;0.95;;
15476;SDS011;7840;42.702;23.296;2023-03-09T12:07:19;1.77;;;1.33;;
15476;SDS011;7840;42.702;23.296;2023-03-09T12:09:49;3.28;;;1.73;;
15476;SDS011;7840;42.702;23.296;2023-03-09T12:12:22;3.08;;;1.40;;
15476;SDS011;7840;42.702;23.296;2023-03-09T12:14:52;1.67;;;1.30;;
15476;SDS011;7840;42.702;23.296;2023-03-09T12:17:22;2.45;;;1.40;;
15476;SDS011;7840;42.702;23.296;2023-03-09T12:20:18;2.08;;;1.30;;
15476;SDS011;7840;42.702;23.296;2023-03-09T12:22:50;2.22;;;1.23;;
15476;SDS011;7840;42.702;23.296;2023-03-09T12:25:19;3.45;;;1.23;;
15476;SDS011;7840;42.702;23.296;2023-03-09T12:36:24;2.70;;;1.63;;
15476;SDS011;7840;42.702;23.296;2023-03-09T12:47:02;2.88;;;1.20;;
15476;SDS011;7840;42.702;23.296;2023-03-09T12:49:32;1.33;;;1.23;;
15476;SDS011;7840;42.702;23.296;2023-03-09T12:52:26;1.40;;;1.23;;
15476;SDS011;7840;42.702;23.296;2023-03-09T12:55:11;1.35;;;1.20;;
15476;SDS011;7840;42.702;23.296;2023-03-09T12:57:46;3.95;;;1.20;;
15476;SDS011;7840;42.702;23.296;2023-03-09T13:00:58;1.90;;;1.45;;
15476;SDS011;7840;42.702;23.296;2023-03-09T13:03:41;2.67;;;1.50;;
15476;SDS011;7840;42.702;23.296;2023-03-09T13:06:20;4.28;;;1.23;;
15476;SDS011;7840;42.702;23.296;2023-03-09T13:08:52;2.17;;;1.65;;
15476;SDS011;7840;42.702;23.296;2023-03-09T13:11:36;1.98;;;1.42;;
15476;SDS011;7840;42.702;23.296;2023-03-09T13:14:10;3.00;;;1.40;;
15476;SDS011;7840;42.702;23.296;2023-03-09T13:19:41;5.30;;;1.55;;
15476;SDS011;7840;42.702;23.296;2023-03-09T13:22:19;2.13;;;1.50;;
15476;SDS011;7840;42.702;23.296;2023-03-09T13:24:49;1.50;;;1.40;;
15476;SDS011;7840;42.702;23.296;2023-03-09T13:27:18;2.20;;;1.30;;
15476;SDS011;7840;42.702;23.296;2023-03-09T13:29:48;2.13;;;1.70;;
15476;SDS011;7840;42.702;23.296;2023-03-09T13:32:20;2.53;;;1.48;;
15476;SDS011;7840;42.702;23.296;2023-03-09T13:34:47;19.70;;;2.05;;
15476;SDS011;7840;42.702;23.296;2023-03-09T13:37:16;4.20;;;1.67;;
15476;SDS011;7840;42.702;23.296;2023-03-09T13:39:56;3.78;;;1.55;;
15476;SDS011;7840;42.702;23.296;2023-03-09T13:42:24;7.93;;;1.88;;
15476;SDS011;7840;42.702;23.296;2023-03-09T13:44:54;3.38;;;1.52;;
15476;SDS011;7840;42.702;23.296;2023-03-09T13:47:31;2.65;;;1.58;;
15476;SDS011;7840;42.702;23.296;2023-03-09T13:49:59;5.05;;;1.50;;
15476;SDS011;7840;42.702;23.296;2023-03-09T13:52:31;4.35;;;1.40;;
15476;SDS011;7840;42.702;23.296;2023-03-09T13:55:00;4.93;;;1.67;;
15476;SDS011;7840;42.702;23.296;2023-03-09T13:57:30;1.50;;;1.40;;
15476;SDS011;7840;42.702;23.296;2023-03-09T14:00:02;2.50;;;1.40;;
15476;SDS011;7840;42.702;23.296;2023-03-09T14:02:31;3.40;;;1.98;;
15476;SDS011;7840;42.702;23.296;2023-03-09T14:05:04;2.22;;;1.67;;
15476;SDS011;7840;42.702;23.296;2023-03-09T14:07:35;3.63;;;1.60;;
15476;SDS011;7840;42.702;23.296;2023-03-09T14:10:06;3.35;;;1.45;;
15476;SDS011;7840;42.702;23.296;2023-03-09T14:12:40;2.20;;;1.63;;
15476;SDS011;7840;42.702;23.296;2023-03-09T14:15:13;6.13;;;1.90;;
15476;SDS011;7840;42.702;23.296;2023-03-09T14:17:43;4.88;;;2.10;;
15476;SDS011;7840;42.702;23.296;2023-03-09T14:20:29;2.97;;;2.50;;
15476;SDS011;7840;42.702;23.296;2023-03-09T14:23:11;4.15;;;2.20;;
15476;SDS011;7840;42.702;23.296;2023-03-09T14:25:42;5.18;;;1.90;;
15476;SDS011;7840;42.702;23.296;2023-03-09T14:28:23;3.88;;;1.73;;
15476;SDS011;7840;42.702;23.296;2023-03-09T14:30:51;2.45;;;2.03;;
15476;SDS011;7840;42.702;23.296;2023-03-09T14:33:23;5.82;;;2.08;;
15476;SDS011;7840;42.702;23.296;2023-03-09T14:36:03;2.80;;;2.00;;
15476;SDS011;7840;42.702;23.296;2023-03-09T14:38:30;7.43;;;2.50;;
15476;SDS011;7840;42.702;23.296;2023-03-09T14:41:02;5.95;;;2.55;;
15476;SDS011;7840;42.702;23.296;2023-03-09T14:43:33;7.75;;;2.90;;
15476;SDS011;7840;42.702;23.296;2023-03-09T14:46:07;5.40;;;3.20;;
15476;SDS011;7840;42.702;23.296;2023-03-09T14:48:35;4.38;;;2.80;;
15476;SDS011;7840;42.702;23.296;2023-03-09T14:51:03;4.18;;;2.70;;
15476;SDS011;7840;42.702;23.296;2023-03-09T14:53:33;5.45;;;2.70;;
15476;SDS011;7840;42.702;23.296;2023-03-09T14:56:16;3.42;;;2.17;;
15476;SDS011;7840;42.702;23.296;2023-03-09T14:58:44;2.60;;;2.20;;
15476;SDS011;7840;42.702;23.296;2023-03-09T15:01:11;4.47;;;2.35;;
15476;SDS011;7840;42.702;23.296;2023-03-09T15:03:39;6.13;;;2.20;;
15476;SDS011;7840;42.702;23.296;2023-03-09T15:06:07;4.25;;;2.53;;
15476;SDS011;7840;42.702;23.296;2023-03-09T15:08:47;3.35;;;2.45;;
15476;SDS011;7840;42.702;23.296;2023-03-09T15:11:29;7.38;;;2.38;;
15476;SDS011;7840;42.702;23.296;2023-03-09T15:13:56;2.63;;;1.83;;
15476;SDS011;7840;42.702;23.296;2023-03-09T15:16:24;5.25;;;2.30;;
15476;SDS011;7840;42.702;23.296;2023-03-09T15:18:51;2.53;;;2.00;;
15476;SDS011;7840;42.702;23.296;2023-03-09T15:21:23;5.43;;;2.42;;
15476;SDS011;7840;42.702;23.296;2023-03-09T15:23:50;4.68;;;2.10;;
15476;SDS011;7840;42.702;23.296;2023-03-09T15:26:17;4.65;;;3.10;;
15476;SDS011;7840;42.702;23.296;2023-03-09T15:28:46;3.67;;;2.95;;
15476;SDS011;7840;42.702;23.296;2023-03-09T15:31:14;6.22;;;2.97;;
15476;SDS011;7840;42.702;23.296;2023-03-09T15:33:41;5.40;;;3.10;;
15476;SDS011;7840;42.702;23.296;2023-03-09T15:36:09;6.40;;;3.10;;
15476;SDS011;7840;42.702;23.296;2023-03-09T15:38:36;7.72;;;3.10;;